Time;durP1;ratioP1;P1;durP2;ratioP2;P2;SDS_P1;SDS_P2;PMS_P1;PMS_P2;Temp;Humidity;BMP_temperature;BMP_pressure;BME280_temperature;BME280_humidity;BME280_pressure;Samples;Min_cycle;Max_cycle;Signal;HPM_P1;HPM_P2
2022/10/18 00:00:25;;;;;;;5.05;3.80;;;;;;;;;;4993354;28;20026;-67
2022/10/18 00:02:51;;;;;;;6.70;4.38;;;;;;;;;;4993213;28;20030;-66
2022/10/18 00:05:17;;;;;;;9.10;4.32;;;;;;;;;;4993074;28;20027;-66
2022/10/18 00:07:42;;;;;;;8.25;4.43;;;;;;;;;;4993173;28;20030;-67
2022/10/18 00:10:09;;;;;;;5.75;4.53;;;;;;;;;;4993219;28;20495;-66
2022/10/18 00:12:36;;;;;;;10.10;4.30;;;;;;;;;;4992886;28;20049;-66
2022/10/18 00:15:03;;;;;;;5.50;3.97;;;;;;;;;;4993328;28;20062;-66
2022/10/18 00:17:28;;;;;;;5.20;4.13;;;;;;;;;;4992929;28;20038;-66
2022/10/18 00:19:54;;;;;;;4.88;4.13;;;;;;;;;;4992771;28;21699;-66
2022/10/18 00:22:19;;;;;;;5.72;3.92;;;;;;;;;;4993308;28;20380;-66
2022/10/18 00:24:45;;;;;;;6.70;3.65;;;;;;;;;;4992979;28;20468;-67
2022/10/18 00:27:11;;;;;;;6.65;3.78;;;;;;;;;;4993011;28;20031;-66
2022/10/18 00:29:36;;;;;;;5.47;3.80;;;;;;;;;;4993077;28;20089;-66
2022/10/18 00:32:02;;;;;;;4.97;3.90;;;;;;;;;;4993066;28;20035;-66
2022/10/18 00:34:27;;;;;;;6.90;3.60;;;;;;;;;;4993088;28;20030;-67
2022/10/18 00:36:53;;;;;;;6.13;3.95;;;;;;;;;;4994554;28;20488;-67
2022/10/18 00:39:21;;;;;;;6.18;4.20;;;;;;;;;;4996429;28;20034;-68
2022/10/18 00:41:48;;;;;;;5.35;4.28;;;;;;;;;;4996513;28;20026;-65
2022/10/18 00:44:16;;;;;;;6.18;4.82;;;;;;;;;;4996451;28;20022;-65
2022/10/18 00:46:44;;;;;;;10.02;5.20;;;;;;;;;;4996196;28;20022;-65
2022/10/18 00:49:34;;;;;;;6.82;4.80;;;;;;;;;;4996359;28;20041;-68
2022/10/18 00:52:03;;;;;;;9.95;4.60;;;;;;;;;;4996353;28;20069;-67
2022/10/18 00:54:31;;;;;;;10.73;5.03;;;;;;;;;;4996280;28;20026;-67
2022/10/18 00:56:57;;;;;;;6.85;4.95;;;;;;;;;;4996145;28;20562;-66
2022/10/18 00:59:23;;;;;;;6.35;4.97;;;;;;;;;;4996018;28;20026;-66
2022/10/18 01:01:48;;;;;;;7.15;5.30;;;;;;;;;;4996349;28;20372;-65
2022/10/18 01:04:15;;;;;;;7.63;5.32;;;;;;;;;;4996118;28;20022;-65
2022/10/18 01:07:05;;;;;;;7.05;5.22;;;;;;;;;;4995893;28;20022;-67
2022/10/18 01:09:47;;;;;;;8.05;5.60;;;;;;;;;;4995987;28;20029;-67
2022/10/18 01:12:24;;;;;;;9.30;5.75;;;;;;;;;;4995584;28;20031;-66
2022/10/18 01:15:09;;;;;;;8.25;6.20;;;;;;;;;;4995807;28;20063;-65
2022/10/18 01:17:40;;;;;;;11.13;6.13;;;;;;;;;;4995347;28;20022;-66
2022/10/18 01:20:42;;;;;;;7.55;5.70;;;;;;;;;;4995540;28;20030;-67
2022/10/18 01:23:39;;;;;;;8.82;5.97;;;;;;;;;;4995625;28;20034;-69
2022/10/18 01:26:25;;;;;;;6.75;6.05;;;;;;;;;;4995663;28;20534;-67
2022/10/18 01:29:01;;;;;;;8.02;7.05;;;;;;;;;;4995588;28;20034;-66
2022/10/18 01:31:35;;;;;;;8.32;6.88;;;;;;;;;;4995400;28;20030;-66
2022/10/18 01:34:07;;;;;;;9.63;7.63;;;;;;;;;;4995471;28;20117;-65
2022/10/18 01:36:42;;;;;;;9.55;7.97;;;;;;;;;;4995421;28;20050;-67
2022/10/18 01:39:12;;;;;;;15.30;8.20;;;;;;;;;;4995284;28;20030;-66
2022/10/18 01:41:39;;;;;;;11.52;7.78;;;;;;;;;;4995335;28;20126;-66
2022/10/18 01:44:08;;;;;;;11.05;8.25;;;;;;;;;;4995232;28;20096;-66
2022/10/18 01:46:35;;;;;;;10.57;7.78;;;;;;;;;;4994893;28;20484;-66
2022/10/18 01:49:00;;;;;;;12.10;8.38;;;;;;;;;;4994395;28;20436;-66
2022/10/18 01:51:30;;;;;;;11.45;8.35;;;;;;;;;;4995137;28;20038;-67
2022/10/18 01:53:56;;;;;;;13.88;8.35;;;;;;;;;;4995122;28;20030;-66
2022/10/18 01:56:54;;;;;;;12.18;8.55;;;;;;;;;;4995159;28;20038;-67
2022/10/18 01:59:38;;;;;;;14.13;9.07;;;;;;;;;;4994753;28;20030;-65
2022/10/18 02:02:12;;;;;;;11.80;8.38;;;;;;;;;;4994996;28;20168;-66
2022/10/18 02:04:50;;;;;;;10.30;7.90;;;;;;;;;;4994860;28;20030;-65
2022/10/18 02:07:48;;;;;;;10.88;8.15;;;;;;;;;;4994844;28;20030;-66
2022/10/18 02:10:23;;;;;;;12.75;8.20;;;;;;;;;;4994778;28;20018;-66
2022/10/18 02:12:51;;;;;;;11.45;8.13;;;;;;;;;;4994588;28;20519;-65
2022/10/18 02:15:22;;;;;;;14.57;8.68;;;;;;;;;;4994409;28;20062;-65
2022/10/18 02:17:49;;;;;;;11.65;8.82;;;;;;;;;;4994467;28;20376;-66
2022/10/18 02:20:18;;;;;;;13.20;9.18;;;;;;;;;;4993122;28;20026;-67
2022/10/18 02:22:47;;;;;;;11.60;9.57;;;;;;;;;;4994451;28;20034;-66
2022/10/18 02:25:19;;;;;;;13.57;10.30;;;;;;;;;;4994426;28;20279;-65
2022/10/18 02:27:45;;;;;;;10.90;9.45;;;;;;;;;;4994365;28;20030;-67
2022/10/18 02:30:11;;;;;;;11.57;10.23;;;;;;;;;;4994152;28;20490;-67
2022/10/18 02:32:43;;;;;;;14.27;10.95;;;;;;;;;;4994237;28;20499;-66
2022/10/18 02:35:35;;;;;;;15.50;10.23;;;;;;;;;;4994421;28;20023;-66
2022/10/18 02:38:03;;;;;;;11.75;9.93;;;;;;;;;;4989686;28;20050;-67
2022/10/18 02:40:29;;;;;;;15.25;10.40;;;;;;;;;;4994137;28;20023;-66
2022/10/18 02:42:56;;;;;;;16.77;10.40;;;;;;;;;;4994037;28;20037;-66
2022/10/18 02:45:22;;;;;;;15.45;10.23;;;;;;;;;;4994150;28;20380;-65
2022/10/18 02:47:47;;;;;;;17.85;11.75;;;;;;;;;;4994082;28;20026;-66
2022/10/18 02:50:13;;;;;;;14.05;11.57;;;;;;;;;;4994030;28;20026;-67
2022/10/18 02:52:39;;;;;;;15.07;12.07;;;;;;;;;;4994019;28;20038;-68
2022/10/18 02:55:05;;;;;;;14.23;11.00;;;;;;;;;;4993942;28;20030;-67
2022/10/18 02:57:31;;;;;;;18.17;11.52;;;;;;;;;;4993590;28;20033;-66
2022/10/18 02:59:56;;;;;;;15.20;11.80;;;;;;;;;;4993836;28;20388;-67
2022/10/18 03:02:22;;;;;;;17.35;11.73;;;;;;;;;;4993942;28;20019;-66
2022/10/18 03:04:47;;;;;;;14.50;11.65;;;;;;;;;;4994108;28;20029;-66
2022/10/18 03:07:13;;;;;;;15.98;10.73;;;;;;;;;;4993658;28;20029;-66
2022/10/18 03:09:38;;;;;;;13.80;11.13;;;;;;;;;;4993824;28;20456;-66
2022/10/18 03:12:04;;;;;;;14.45;12.00;;;;;;;;;;4993334;28;20088;-66
2022/10/18 03:14:30;;;;;;;15.50;11.20;;;;;;;;;;4993932;28;20037;-66
2022/10/18 03:16:55;;;;;;;15.57;10.95;;;;;;;;;;4993641;28;20041;-65
2022/10/18 03:19:21;;;;;;;15.85;11.82;;;;;;;;;;4993629;28;20026;-67
2022/10/18 03:21:46;;;;;;;16.52;11.73;;;;;;;;;;4993515;28;20032;-66
2022/10/18 03:24:11;;;;;;;16.30;11.45;;;;;;;;;;4993647;28;20228;-66
2022/10/18 03:26:37;;;;;;;16.85;12.23;;;;;;;;;;4993237;28;20108;-66
2022/10/18 03:29:03;;;;;;;17.48;12.98;;;;;;;;;;4993730;28;20026;-66
2022/10/18 03:31:28;;;;;;;16.50;11.98;;;;;;;;;;4993585;28;20030;-67
2022/10/18 03:33:54;;;;;;;19.25;12.85;;;;;;;;;;4993547;28;20027;-68
2022/10/18 03:36:19;;;;;;;16.95;11.60;;;;;;;;;;4993396;28;20460;-66
2022/10/18 03:38:45;;;;;;;14.00;10.02;;;;;;;;;;4993226;28;20125;-66
2022/10/18 03:41:10;;;;;;;13.38;9.27;;;;;;;;;;4993379;28;20391;-69
2022/10/18 03:43:36;;;;;;;15.05;9.05;;;;;;;;;;4993436;28;20421;-65
2022/10/18 03:46:02;;;;;;;11.10;8.50;;;;;;;;;;4993467;28;20030;-65
2022/10/18 03:48:28;;;;;;;11.07;7.30;;;;;;;;;;4993386;28;20030;-66
2022/10/18 03:50:53;;;;;;;11.73;7.70;;;;;;;;;;4993360;28;20044;-66
2022/10/18 03:53:18;;;;;;;13.07;7.78;;;;;;;;;;4993425;28;20081;-65
2022/10/18 03:55:49;;;;;;;10.65;7.53;;;;;;;;;;4993200;28;20049;-66
2022/10/18 03:58:15;;;;;;;11.25;7.13;;;;;;;;;;4993270;28;20033;-66
2022/10/18 04:00:40;;;;;;;10.77;7.10;;;;;;;;;;4993219;28;20105;-66
2022/10/18 04:03:06;;;;;;;9.93;6.80;;;;;;;;;;4991990;28;20038;-66
2022/10/18 04:05:31;;;;;;;12.38;7.45;;;;;;;;;;4993217;28;20031;-65
2022/10/18 04:07:57;;;;;;;11.68;7.25;;;;;;;;;;4993155;28;20034;-67
2022/10/18 04:10:23;;;;;;;10.68;6.53;;;;;;;;;;4993129;28;20022;-68
2022/10/18 04:12:48;;;;;;;8.63;6.75;;;;;;;;;;4996064;28;20042;-66
2022/10/18 04:15:14;;;;;;;10.75;7.30;;;;;;;;;;4997046;28;20104;-67
2022/10/18 04:17:39;;;;;;;11.25;7.20;;;;;;;;;;4996990;28;20065;-66
2022/10/18 04:20:05;;;;;;;9.55;6.95;;;;;;;;;;4996395;28;20520;-66
2022/10/18 04:22:31;;;;;;;9.45;6.68;;;;;;;;;;4996678;28;20030;-66
2022/10/18 04:24:56;;;;;;;10.48;7.13;;;;;;;;;;4996529;28;20483;-68
2022/10/18 04:27:22;;;;;;;10.27;6.95;;;;;;;;;;4996544;28;20388;-66
2022/10/18 04:29:48;;;;;;;11.07;7.15;;;;;;;;;;4996639;28;20029;-66
2022/10/18 04:32:13;;;;;;;15.82;7.60;;;;;;;;;;4996687;28;20022;-66
2022/10/18 04:34:39;;;;;;;13.20;8.30;;;;;;;;;;4996617;28;20476;-65
2022/10/18 04:37:04;;;;;;;13.32;8.77;;;;;;;;;;4995047;28;20062;-65
2022/10/18 04:39:30;;;;;;;12.55;8.88;;;;;;;;;;4996268;28;20093;-66
2022/10/18 04:41:55;;;;;;;11.95;8.40;;;;;;;;;;4996209;28;20026;-65
2022/10/18 04:44:21;;;;;;;12.15;8.18;;;;;;;;;;4996533;28;20018;-65
2022/10/18 04:46:46;;;;;;;10.05;7.65;;;;;;;;;;4996193;28;20026;-67
2022/10/18 04:49:12;;;;;;;11.02;7.35;;;;;;;;;;4996504;28;20026;-67
2022/10/18 04:51:37;;;;;;;15.07;10.45;;;;;;;;;;4996240;28;20030;-66
2022/10/18 04:54:03;;;;;;;12.57;8.10;;;;;;;;;;4995951;28;20033;-65
2022/10/18 04:56:28;;;;;;;12.60;8.60;;;;;;;;;;4996128;28;20425;-66
2022/10/18 04:58:54;;;;;;;11.35;7.40;;;;;;;;;;4995941;28;20057;-65
2022/10/18 05:01:19;;;;;;;10.38;8.23;;;;;;;;;;4996051;28;20026;-67
2022/10/18 05:03:44;;;;;;;12.35;7.88;;;;;;;;;;4996024;28;20144;-66
2022/10/18 05:06:10;;;;;;;11.50;7.82;;;;;;;;;;4995849;28;20022;-67
2022/10/18 05:08:37;;;;;;;11.63;8.63;;;;;;;;;;4995608;28;20030;-66
2022/10/18 05:11:03;;;;;;;12.90;9.50;;;;;;;;;;4995871;28;20037;-66
2022/10/18 05:13:29;;;;;;;12.75;9.02;;;;;;;;;;4995218;28;20050;-66
2022/10/18 05:15:55;;;;;;;12.10;8.38;;;;;;;;;;4995847;28;20022;-66
2022/10/18 05:18:21;;;;;;;16.88;10.02;;;;;;;;;;4995667;28;20030;-66
2022/10/18 05:20:46;;;;;;;15.02;9.90;;;;;;;;;;4995499;28;20029;-66
2022/10/18 05:23:12;;;;;;;13.85;9.73;;;;;;;;;;4994201;28;20062;-66
2022/10/18 05:25:41;;;;;;;12.90;10.35;;;;;;;;;;4995619;28;20033;-66
2022/10/18 05:28:07;;;;;;;16.88;11.02;;;;;;;;;;4995410;28;20034;-66
2022/10/18 05:30:35;;;;;;;13.68;9.90;;;;;;;;;;4995382;28;20033;-66
2022/10/18 05:33:01;;;;;;;14.05;10.45;;;;;;;;;;4994254;28;20030;-65
2022/10/18 05:35:26;;;;;;;15.80;10.32;;;;;;;;;;4995449;28;20026;-65
2022/10/18 05:37:52;;;;;;;18.33;11.10;;;;;;;;;;4995003;28;20022;-68
2022/10/18 05:40:17;;;;;;;16.73;10.73;;;;;;;;;;4995381;28;20038;-66
2022/10/18 05:42:43;;;;;;;18.20;10.63;;;;;;;;;;4995294;28;20482;-66
2022/10/18 05:45:08;;;;;;;14.27;10.90;;;;;;;;;;4995113;28;20034;-69
2022/10/18 05:47:34;;;;;;;17.92;10.70;;;;;;;;;;4995386;28;20547;-66
2022/10/18 05:49:59;;;;;;;17.63;10.77;;;;;;;;;;4993591;28;20034;-66
2022/10/18 05:52:25;;;;;;;14.88;10.57;;;;;;;;;;4994846;28;20404;-66
2022/10/18 05:54:50;;;;;;;18.27;12.10;;;;;;;;;;4995031;28;20029;-67
2022/10/18 05:57:15;;;;;;;16.40;11.55;;;;;;;;;;4994967;28;20118;-69
2022/10/18 05:59:41;;;;;;;14.40;10.98;;;;;;;;;;4994841;28;20034;-65
2022/10/18 06:02:10;;;;;;;18.02;11.73;;;;;;;;;;4994803;28;20026;-67
2022/10/18 06:04:35;;;;;;;16.00;10.13;;;;;;;;;;4994831;28;20158;-66
2022/10/18 06:07:01;;;;;;;17.27;11.27;;;;;;;;;;4994162;28;20046;-66
2022/10/18 06:09:27;;;;;;;16.35;11.50;;;;;;;;;;4994740;28;20117;-66
2022/10/18 06:11:53;;;;;;;15.63;11.30;;;;;;;;;;4994709;28;20041;-66
2022/10/18 06:14:18;;;;;;;18.80;12.02;;;;;;;;;;4994615;28;20042;-67
2022/10/18 06:16:44;;;;;;;17.08;12.27;;;;;;;;;;4994593;28;20591;-66
2022/10/18 06:19:09;;;;;;;15.82;11.70;;;;;;;;;;4994401;28;20038;-68
2022/10/18 06:21:35;;;;;;;18.30;12.77;;;;;;;;;;4994197;28;20049;-66
2022/10/18 06:24:00;;;;;;;16.52;11.82;;;;;;;;;;4994247;28;20050;-66
2022/10/18 06:26:26;;;;;;;18.30;12.30;;;;;;;;;;4994131;28;20037;-66
2022/10/18 06:28:52;;;;;;;19.30;12.25;;;;;;;;;;4994404;28;20022;-66
2022/10/18 06:31:17;;;;;;;17.23;11.95;;;;;;;;;;4994290;28;20030;-66
2022/10/18 06:33:44;;;;;;;15.20;11.95;;;;;;;;;;4994108;28;20093;-66
2022/10/18 06:36:15;;;;;;;20.85;13.32;;;;;;;;;;4993880;28;20081;-67
2022/10/18 06:38:41;;;;;;;17.25;12.20;;;;;;;;;;4994207;28;20460;-68
2022/10/18 06:41:07;;;;;;;16.95;12.07;;;;;;;;;;4994202;28;20026;-67
2022/10/18 06:43:33;;;;;;;18.23;11.98;;;;;;;;;;4994165;28;20026;-67
2022/10/18 06:46:02;;;;;;;19.45;12.40;;;;;;;;;;4994044;28;20045;-68
2022/10/18 06:48:28;;;;;;;16.88;12.55;;;;;;;;;;4994137;28;20085;-66
2022/10/18 06:50:58;;;;;;;17.35;12.52;;;;;;;;;;4993902;28;20065;-68
2022/10/18 06:53:24;;;;;;;18.90;12.52;;;;;;;;;;4992913;28;20022;-70
2022/10/18 06:55:50;;;;;;;17.13;12.25;;;;;;;;;;4994095;28;20034;-67
2022/10/18 06:58:15;;;;;;;16.92;13.07;;;;;;;;;;4993920;28;20208;-67
2022/10/18 07:00:41;;;;;;;19.58;12.25;;;;;;;;;;4993797;28;20460;-67
2022/10/18 07:03:06;;;;;;;16.23;11.85;;;;;;;;;;4993843;28;20027;-67
2022/10/18 07:05:32;;;;;;;17.23;12.23;;;;;;;;;;4993654;28;20031;-66
2022/10/18 07:07:57;;;;;;;15.25;11.43;;;;;;;;;;4993783;28;20022;-67
2022/10/18 07:10:24;;;;;;;14.88;11.57;;;;;;;;;;4993923;28;20034;-67
2022/10/18 07:12:50;;;;;;;19.80;12.18;;;;;;;;;;4993503;28;20053;-66
2022/10/18 07:15:16;;;;;;;15.05;11.98;;;;;;;;;;4993273;28;20387;-67
2022/10/18 07:17:45;;;;;;;16.77;11.38;;;;;;;;;;4993606;28;20022;-66
2022/10/18 07:20:11;;;;;;;12.90;10.50;;;;;;;;;;4993253;28;20062;-67
2022/10/18 07:22:39;;;;;;;14.75;10.40;;;;;;;;;;4993660;28;20102;-67
2022/10/18 07:25:06;;;;;;;15.57;10.40;;;;;;;;;;4993675;28;20031;-66
2022/10/18 07:27:36;;;;;;;16.23;10.20;;;;;;;;;;4993278;28;20117;-66
2022/10/18 07:30:02;;;;;;;13.35;9.82;;;;;;;;;;4993448;28;20052;-66
2022/10/18 07:32:27;;;;;;;12.35;9.88;;;;;;;;;;4993494;28;20041;-66
2022/10/18 07:34:53;;;;;;;15.18;11.15;;;;;;;;;;4993192;28;20031;-66
2022/10/18 07:37:19;;;;;;;16.67;11.95;;;;;;;;;;4993374;28;20034;-67
2022/10/18 07:39:44;;;;;;;17.52;13.43;;;;;;;;;;4993504;28;20027;-68
2022/10/18 07:42:09;;;;;;;22.75;15.40;;;;;;;;;;4993529;28;20543;-67
2022/10/18 07:44:35;;;;;;;21.63;13.65;;;;;;;;;;4993428;28;20035;-67
2022/10/18 07:47:00;;;;;;;20.05;11.48;;;;;;;;;;4995312;28;20026;-67
2022/10/18 07:49:26;;;;;;;16.50;11.65;;;;;;;;;;4997212;28;20077;-67
2022/10/18 07:51:51;;;;;;;19.63;10.77;;;;;;;;;;4997447;28;20037;-67
2022/10/18 07:54:17;;;;;;;16.15;11.10;;;;;;;;;;4997288;28;20029;-68
2022/10/18 07:56:42;;;;;;;12.73;9.13;;;;;;;;;;4997076;28;20440;-67
2022/10/18 07:59:09;;;;;;;17.13;11.20;;;;;;;;;;4997207;28;20503;-67
2022/10/18 08:01:34;;;;;;;23.45;12.35;;;;;;;;;;4996868;28;20362;-67
2022/10/18 08:03:59;;;;;;;23.48;12.15;;;;;;;;;;4997144;28;20089;-67
2022/10/18 08:06:25;;;;;;;21.33;13.48;;;;;;;;;;4996970;28;20484;-67
2022/10/18 08:08:51;;;;;;;15.80;10.32;;;;;;;;;;4997005;28;20559;-66
2022/10/18 08:11:18;;;;;;;14.52;8.85;;;;;;;;;;4997085;28;20026;-66
2022/10/18 08:13:45;;;;;;;14.15;9.02;;;;;;;;;;4996741;28;20050;-67
2022/10/18 08:16:13;;;;;;;12.30;7.95;;;;;;;;;;4996697;28;20109;-68
2022/10/18 08:18:39;;;;;;;15.32;7.82;;;;;;;;;;4996861;28;20041;-66
2022/10/18 08:21:07;;;;;;;12.63;7.82;;;;;;;;;;4996673;28;20033;-67
2022/10/18 08:23:33;;;;;;;13.23;9.27;;;;;;;;;;4996836;28;20081;-68
2022/10/18 08:26:07;;;;;;;15.82;9.15;;;;;;;;;;4996579;28;20101;-67
2022/10/18 08:28:35;;;;;;;19.55;10.05;;;;;;;;;;4996606;28;20018;-66
2022/10/18 08:31:06;;;;;;;28.65;18.42;;;;;;;;;;4996500;28;20022;-67
2022/10/18 08:33:32;;;;;;;13.25;8.90;;;;;;;;;;4996765;28;20049;-67
2022/10/18 08:36:01;;;;;;;13.63;8.48;;;;;;;;;;4996575;28;20027;-67
2022/10/18 08:38:32;;;;;;;13.50;8.68;;;;;;;;;;4996499;28;20030;-70
2022/10/18 08:41:00;;;;;;;17.33;8.95;;;;;;;;;;4996489;28;20023;-68
2022/10/18 08:44:04;;;;;;;14.25;8.15;;;;;;;;;;4996474;28;20029;-67
2022/10/18 08:46:32;;;;;;;11.43;7.80;;;;;;;;;;4993034;28;20042;-69
2022/10/18 08:48:59;;;;;;;13.20;8.23;;;;;;;;;;4996530;28;20506;-68
2022/10/18 08:51:38;;;;;;;16.25;8.15;;;;;;;;;;4996338;28;20031;-69
2022/10/18 08:54:10;;;;;;;12.82;8.25;;;;;;;;;;4996322;28;20034;-67
2022/10/18 08:56:38;;;;;;;14.23;7.95;;;;;;;;;;4996048;28;20045;-67
2022/10/18 08:59:09;;;;;;;11.85;8.68;;;;;;;;;;4995706;28;20094;-68
2022/10/18 09:02:04;;;;;;;13.98;8.85;;;;;;;;;;4995923;28;20109;-67
2022/10/18 09:04:32;;;;;;;16.70;9.10;;;;;;;;;;4996049;28;20030;-67
2022/10/18 09:07:10;;;;;;;19.73;13.93;;;;;;;;;;4995507;28;20032;-68
2022/10/18 09:10:18;;;;;;;18.73;13.20;;;;;;;;;;4995843;28;20034;-67
2022/10/18 09:13:01;;;;;;;19.08;12.40;;;;;;;;;;4954790;29;20054;-66
2022/10/18 09:15:33;;;;;;;19.38;10.07;;;;;;;;;;4954840;29;20043;-68
2022/10/18 09:18:29;;;;;;;17.83;10.90;;;;;;;;;;4954860;29;20042;-67
2022/10/18 09:20:59;;;;;;;19.48;12.57;;;;;;;;;;4954737;29;20042;-69
2022/10/18 09:23:47;;;;;;;16.15;11.98;;;;;;;;;;4954713;29;20043;-68
2022/10/18 09:26:18;;;;;;;19.00;9.80;;;;;;;;;;4954543;29;20063;-69
2022/10/18 09:28:56;;;;;;;18.17;10.50;;;;;;;;;;4954267;29;20023;-69
2022/10/18 09:31:27;;;;;;;14.23;10.27;;;;;;;;;;4954556;29;20473;-67
2022/10/18 09:34:00;;;;;;;21.50;11.50;;;;;;;;;;4954805;29;20027;-67
2022/10/18 09:36:34;;;;;;;20.02;11.70;;;;;;;;;;4954741;29;20032;-67
2022/10/18 09:39:08;;;;;;;20.05;11.98;;;;;;;;;;4954483;29;20130;-68
2022/10/18 09:41:39;;;;;;;29.60;12.55;;;;;;;;;;4954579;29;20524;-67
2022/10/18 09:44:21;;;;;;;21.00;11.20;;;;;;;;;;4954271;29;20072;-67
2022/10/18 09:46:55;;;;;;;20.52;10.52;;;;;;;;;;4954342;29;20035;-66
2022/10/18 09:49:24;;;;;;;17.95;10.23;;;;;;;;;;4968493;28;20068;-66
2022/10/18 09:51:52;;;;;;;18.55;9.75;;;;;;;;;;4995018;28;20022;-66
2022/10/18 09:54:42;;;;;;;12.48;8.63;;;;;;;;;;4995157;28;20034;-66
2022/10/18 09:57:10;;;;;;;14.85;8.80;;;;;;;;;;4995006;28;20041;-67
2022/10/18 09:59:40;;;;;;;13.57;8.50;;;;;;;;;;4994737;28;20464;-67
2022/10/18 10:02:08;;;;;;;16.52;8.68;;;;;;;;;;4994982;28;20491;-67
2022/10/18 10:04:33;;;;;;;15.80;8.77;;;;;;;;;;4994845;28;20026;-67
2022/10/18 10:07:00;;;;;;;15.02;9.00;;;;;;;;;;4994629;28;20392;-66
2022/10/18 10:09:28;;;;;;;12.05;8.65;;;;;;;;;;4994217;28;20053;-67
2022/10/18 10:11:55;;;;;;;13.88;8.55;;;;;;;;;;4994665;28;20035;-66
2022/10/18 10:14:25;;;;;;;13.82;8.63;;;;;;;;;;4994220;28;20169;-67
2022/10/18 10:16:54;;;;;;;10.43;8.35;;;;;;;;;;4994583;28;20101;-67
2022/10/18 10:19:40;;;;;;;13.33;8.70;;;;;;;;;;4994585;28;20045;-67
2022/10/18 10:22:10;;;;;;;12.32;9.07;;;;;;;;;;4972897;28;20047;-67
2022/10/18 10:24:47;;;;;;;19.42;9.13;;;;;;;;;;4972917;28;20480;-68
2022/10/18 10:27:18;;;;;;;13.88;8.85;;;;;;;;;;4972686;28;20047;-70
2022/10/18 10:29:46;;;;;;;16.17;9.80;;;;;;;;;;4973069;28;20409;-66
2022/10/18 10:32:14;;;;;;;11.65;9.38;;;;;;;;;;4972818;28;20026;-67
2022/10/18 10:34:42;;;;;;;11.93;9.40;;;;;;;;;;4972822;28;20060;-67
2022/10/18 10:37:40;;;;;;;12.23;8.80;;;;;;;;;;4972684;28;20042;-68
2022/10/18 10:40:14;;;;;;;17.83;9.20;;;;;;;;;;4934176;29;20094;-68
2022/10/18 10:43:00;;;;;;;17.85;9.25;;;;;;;;;;4933925;29;20446;-71
2022/10/18 10:45:29;;;;;;;17.20;9.13;;;;;;;;;;4934054;29;20220;-69
2022/10/18 10:48:02;;;;;;;18.08;10.13;;;;;;;;;;4918105;29;20031;-69
2022/10/18 10:50:28;;;;;;;18.50;9.57;;;;;;;;;;4934068;29;20040;-68
2022/10/18 10:52:54;;;;;;;14.10;9.32;;;;;;;;;;4934077;29;20036;-67
2022/10/18 10:55:27;;;;;;;17.35;9.00;;;;;;;;;;4933867;29;20500;-66
2022/10/18 10:57:55;;;;;;;15.25;9.75;;;;;;;;;;4933777;29;20032;-67
2022/10/18 11:00:41;;;;;;;16.58;9.98;;;;;;;;;;4934000;29;20486;-67
2022/10/18 11:03:18;;;;;;;15.07;10.20;;;;;;;;;;4933967;29;20042;-67
2022/10/18 11:05:46;;;;;;;16.00;10.90;;;;;;;;;;4933841;29;20031;-67
2022/10/18 11:08:19;;;;;;;13.77;10.27;;;;;;;;;;4918336;29;20027;-67
2022/10/18 11:11:05;;;;;;;14.70;10.30;;;;;;;;;;4933610;29;20103;-67
2022/10/18 11:13:43;;;;;;;14.20;10.63;;;;;;;;;;4932707;29;20087;-68
2022/10/18 11:16:39;;;;;;;12.90;10.07;;;;;;;;;;4975883;28;20109;-71
2022/10/18 11:19:31;;;;;;;17.08;10.70;;;;;;;;;;4992983;28;20122;-67
2022/10/18 11:21:58;;;;;;;17.67;10.90;;;;;;;;;;4992416;28;20034;-67
2022/10/18 11:24:24;;;;;;;17.30;11.90;;;;;;;;;;4993784;28;20130;-69
2022/10/18 11:27:02;;;;;;;17.23;11.82;;;;;;;;;;4992222;28;20054;-68
2022/10/18 11:29:52;;;;;;;18.15;11.38;;;;;;;;;;4993598;28;20027;-67
2022/10/18 11:32:35;;;;;;;17.85;11.57;;;;;;;;;;4993628;28;20023;-67
2022/10/18 11:35:16;;;;;;;17.17;11.20;;;;;;;;;;4993667;28;20512;-67
2022/10/18 11:37:41;;;;;;;;;;;;;;;;;;4993837;28;20158;-67
2022/10/18 11:40:42;;;;;;;21.65;10.80;;;;;;;;;;4993160;28;19930;-68
2022/10/18 11:43:19;;;;;;;14.95;9.88;;;;;;;;;;4952632;29;20078;-68
2022/10/18 11:45:56;;;;;;;13.15;9.27;;;;;;;;;;4952658;29;20535;-68
2022/10/18 11:48:27;;;;;;;14.63;9.70;;;;;;;;;;4952603;29;20070;-67
2022/10/18 11:51:11;;;;;;;19.50;10.70;;;;;;;;;;4952419;29;20043;-69
2022/10/18 11:54:08;;;;;;;18.23;9.60;;;;;;;;;;4952305;29;20377;-68
2022/10/18 11:56:58;;;;;;;16.30;8.48;;;;;;;;;;4895298;29;20045;-68
2022/10/18 11:59:28;;;;;;;14.38;9.18;;;;;;;;;;4895527;29;20083;-67
2022/10/18 12:02:41;;;;;;;13.60;9.60;;;;;;;;;;4895342;29;20119;-67
2022/10/18 12:05:08;;;;;;;16.33;9.25;;;;;;;;;;4895525;29;20116;-67
2022/10/18 12:07:40;;;;;;;15.45;9.10;;;;;;;;;;4895366;29;20075;-66
2022/10/18 12:10:08;;;;;;;15.25;9.30;;;;;;;;;;4895118;29;20113;-70
2022/10/18 12:12:44;;;;;;;15.00;8.82;;;;;;;;;;4895217;29;20049;-67
2022/10/18 12:15:38;;;;;;;15.63;9.68;;;;;;;;;;4895541;29;20049;-67
2022/10/18 12:18:10;;;;;;;17.23;10.70;;;;;;;;;;4926885;29;20068;-67
2022/10/18 12:20:40;;;;;;;10.50;7.70;;;;;;;;;;4932903;29;20142;-67
2022/10/18 12:23:15;;;;;;;18.25;8.85;;;;;;;;;;4933019;29;20111;-68
2022/10/18 12:25:46;;;;;;;12.43;8.70;;;;;;;;;;4933013;29;20044;-68
2022/10/18 12:28:12;;;;;;;13.38;7.18;;;;;;;;;;4933242;29;20032;-67
2022/10/18 12:30:58;;;;;;;19.35;7.10;;;;;;;;;;4933166;29;20096;-71
2022/10/18 12:33:29;;;;;;;11.43;6.40;;;;;;;;;;4977658;28;20058;-68
2022/10/18 12:36:09;;;;;;;;;;;;;;;;;;4995716;28;20102;-65
2022/10/18 12:38:39;;;;;;;15.95;6.57;;;;;;;;;;4996205;28;20360;-68
2022/10/18 12:41:05;;;;;;;14.90;6.47;;;;;;;;;;4996448;28;20034;-68
2022/10/18 12:43:36;;;;;;;19.10;6.53;;;;;;;;;;4996356;28;20101;-71
2022/10/18 12:46:07;;;;;;;10.95;5.88;;;;;;;;;;4996344;28;20433;-67
2022/10/18 12:48:41;;;;;;;18.63;6.28;;;;;;;;;;4996307;28;20034;-69
2022/10/18 12:51:21;;;;;;;13.35;5.63;;;;;;;;;;4996335;28;20105;-68
2022/10/18 12:54:01;;;;;;;7.97;5.30;;;;;;;;;;4996043;28;20097;-67
2022/10/18 12:56:26;;;;;;;;;;;;;;;;;;4996476;28;20034;-67
2022/10/18 12:59:12;;;;;;;9.07;4.93;;;;;;;;;;4996178;28;19961;-67
2022/10/18 13:01:49;;;;;;;10.85;5.07;;;;;;;;;;4996093;28;20424;-68
2022/10/18 13:04:27;;;;;;;16.45;6.47;;;;;;;;;;4995861;28;20352;-67
2022/10/18 13:07:06;;;;;;;10.15;5.53;;;;;;;;;;4995700;28;20379;-67
2022/10/18 13:09:36;;;;;;;10.20;6.18;;;;;;;;;;4996018;28;20026;-68
2022/10/18 13:12:08;;;;;;;8.32;5.50;;;;;;;;;;4995842;28;20026;-68
2022/10/18 13:14:36;;;;;;;17.67;6.03;;;;;;;;;;4995909;28;20109;-68
2022/10/18 13:17:17;;;;;;;12.55;5.50;;;;;;;;;;4995701;28;20030;-67
2022/10/18 13:19:43;;;;;;;8.70;6.07;;;;;;;;;;4995463;28;20436;-67
2022/10/18 13:22:18;;;;;;;8.77;6.15;;;;;;;;;;4995534;28;20444;-68
2022/10/18 13:25:04;;;;;;;12.95;5.78;;;;;;;;;;4995584;28;20022;-73
2022/10/18 13:27:48;;;;;;;11.90;5.47;;;;;;;;;;4995477;28;20433;-68
2022/10/18 13:30:16;;;;;;;10.93;5.63;;;;;;;;;;4995308;28;20034;-67
2022/10/18 13:33:15;;;;;;;12.32;6.50;;;;;;;;;;4995566;28;20034;-67
2022/10/18 13:35:47;;;;;;;13.63;7.05;;;;;;;;;;4995178;28;20035;-68
2022/10/18 13:38:46;;;;;;;9.88;6.32;;;;;;;;;;4995188;28;20023;-72
2022/10/18 13:41:21;;;;;;;10.18;5.45;;;;;;;;;;4995224;28;20030;-67
2022/10/18 13:43:55;;;;;;;8.35;4.75;;;;;;;;;;4994521;28;20026;-68
2022/10/18 13:46:32;;;;;;;9.57;5.13;;;;;;;;;;4995001;28;20110;-68
2022/10/18 13:49:16;;;;;;;11.07;5.15;;;;;;;;;;4995234;28;20087;-68
2022/10/18 13:51:59;;;;;;;11.18;4.15;;;;;;;;;;4994917;28;20045;-67
2022/10/18 13:54:33;;;;;;;10.73;3.70;;;;;;;;;;4994858;28;20037;-67
2022/10/18 13:57:39;;;;;;;11.45;3.63;;;;;;;;;;4994915;28;20022;-67
2022/10/18 14:00:42;;;;;;;10.90;3.53;;;;;;;;;;4994913;28;20038;-67
2022/10/18 14:03:22;;;;;;;10.95;3.70;;;;;;;;;;4995052;28;20033;-67
2022/10/18 14:05:51;;;;;;;8.13;3.13;;;;;;;;;;4994381;28;20056;-68
2022/10/18 14:08:35;;;;;;;9.50;2.85;;;;;;;;;;4994893;28;20558;-68
2022/10/18 14:11:12;;;;;;;8.65;2.40;;;;;;;;;;4994701;28;20030;-68
2022/10/18 14:13:47;;;;;;;8.32;2.20;;;;;;;;;;4994426;28;20117;-67
2022/10/18 14:16:42;;;;;;;8.45;2.42;;;;;;;;;;4994636;28;20062;-67
2022/10/18 14:19:32;;;;;;;11.07;2.72;;;;;;;;;;4994309;28;20341;-67
2022/10/18 14:22:22;;;;;;;6.70;2.50;;;;;;;;;;4993253;28;20119;-68
2022/10/18 14:24:53;;;;;;;8.40;2.30;;;;;;;;;;4993031;28;20030;-71
2022/10/18 14:27:18;;;;;;;;;;;;;;;;;;4994959;28;20053;-68
2022/10/18 14:29:45;;;;;;;6.63;2.10;;;;;;;;;;4994549;28;20360;-67
2022/10/18 14:32:28;;;;;;;7.60;2.53;;;;;;;;;;4986664;28;20038;-68
2022/10/18 14:34:55;;;;;;;10.88;2.30;;;;;;;;;;4974739;28;20495;-67
2022/10/18 14:37:32;;;;;;;10.85;2.20;;;;;;;;;;4974789;28;20022;-67
2022/10/18 14:39:58;;;;;;;8.88;2.38;;;;;;;;;;4974674;28;20105;-67
2022/10/18 14:42:25;;;;;;;10.23;2.03;;;;;;;;;;4974954;28;20504;-67
2022/10/18 14:44:51;;;;;;;7.80;3.13;;;;;;;;;;4974430;28;20042;-67
2022/10/18 14:47:22;;;;;;;8.27;2.97;;;;;;;;;;4974731;28;20034;-67
2022/10/18 14:49:49;;;;;;;6.05;2.40;;;;;;;;;;4974568;28;20477;-67
2022/10/18 14:52:17;;;;;;;138.32;43.65;;;;;;;;;;4973226;28;20488;-67